sensor_id;sensor_type;location;lat;lon;timestamp;pressure;altitude;pressure_sealevel;temperature;humidity
20015;BME280;61787;42.022;23.078;2023-02-04T00:00:21;96834.25;;;2.11;78.20
20015;BME280;61787;42.022;23.078;2023-02-04T00:01:23;96834.31;;;2.01;77.94
20015;BME280;61787;42.022;23.078;2023-02-04T00:02:25;96834.41;;;1.91;77.85
20015;BME280;61787;42.022;23.078;2023-02-04T00:03:26;96834.00;;;1.79;78.73
20015;BME280;61787;42.022;23.078;2023-02-04T00:04:28;96834.03;;;1.74;79.37
20015;BME280;61787;42.022;23.078;2023-02-04T00:05:30;96843.50;;;1.75;79.47
20015;BME280;61787;42.022;23.078;2023-02-04T00:06:31;96838.22;;;1.75;79.16
20015;BME280;61787;42.022;23.078;2023-02-04T00:07:33;96835.03;;;1.78;78.88
20015;BME280;61787;42.022;23.078;2023-02-04T00:08:35;96834.00;;;1.79;78.38
20015;BME280;61787;42.022;23.078;2023-02-04T00:09:37;96837.97;;;1.77;78.57
20015;BME280;61787;42.022;23.078;2023-02-04T00:10:39;96839.34;;;1.69;78.42
20015;BME280;61787;42.022;23.078;2023-02-04T00:11:41;96834.59;;;1.66;79.16
20015;BME280;61787;42.022;23.078;2023-02-04T00:12:42;96829.88;;;1.63;79.48
20015;BME280;61787;42.022;23.078;2023-02-04T00:13:44;96829.56;;;1.64;79.61
20015;BME280;61787;42.022;23.078;2023-02-04T00:14:46;96828.28;;;1.62;79.81
20015;BME280;61787;42.022;23.078;2023-02-04T00:15:47;96818.81;;;1.56;79.98
20015;BME280;61787;42.022;23.078;2023-02-04T00:16:49;96828.34;;;1.52;80.68
20015;BME280;61787;42.022;23.078;2023-02-04T00:17:50;96825.75;;;1.47;81.19
20015;BME280;61787;42.022;23.078;2023-02-04T00:18:52;96814.16;;;1.43;81.74
20015;BME280;61787;42.022;23.078;2023-02-04T00:19:54;96817.84;;;1.42;81.61
20015;BME280;61787;42.022;23.078;2023-02-04T00:20:55;96814.19;;;1.38;81.62
20015;BME280;61787;42.022;23.078;2023-02-04T00:21:57;96818.13;;;1.40;81.44
20015;BME280;61787;42.022;23.078;2023-02-04T00:22:58;96818.94;;;1.36;81.54
20015;BME280;61787;42.022;23.078;2023-02-04T00:24:00;96826.34;;;1.34;82.22
20015;BME280;61787;42.022;23.078;2023-02-04T00:25:01;96818.44;;;1.28;82.73
20015;BME280;61787;42.022;23.078;2023-02-04T00:26:03;96820.59;;;1.26;82.84
20015;BME280;61787;42.022;23.078;2023-02-04T00:27:05;96807.38;;;1.26;83.60
20015;BME280;61787;42.022;23.078;2023-02-04T00:28:07;96808.66;;;1.29;83.70
20015;BME280;61787;42.022;23.078;2023-02-04T00:29:09;96798.91;;;1.29;83.59
20015;BME280;61787;42.022;23.078;2023-02-04T00:30:11;96799.19;;;1.28;83.96
20015;BME280;61787;42.022;23.078;2023-02-04T00:31:13;96792.59;;;1.25;84.24
20015;BME280;61787;42.022;23.078;2023-02-04T00:32:15;96793.66;;;1.24;84.72
20015;BME280;61787;42.022;23.078;2023-02-04T00:33:16;96794.19;;;1.26;84.53
20015;BME280;61787;42.022;23.078;2023-02-04T00:34:18;96796.25;;;1.29;84.67
20015;BME280;61787;42.022;23.078;2023-02-04T00:35:20;96795.19;;;1.31;84.47
20015;BME280;61787;42.022;23.078;2023-02-04T00:36:21;96790.44;;;1.33;84.73
20015;BME280;61787;42.022;23.078;2023-02-04T00:37:23;96800.19;;;1.37;84.21
20015;BME280;61787;42.022;23.078;2023-02-04T00:38:25;96793.81;;;1.43;84.08
20015;BME280;61787;42.022;23.078;2023-02-04T00:39:26;96794.56;;;1.44;83.60
20015;BME280;61787;42.022;23.078;2023-02-04T00:40:28;96790.88;;;1.45;83.72
20015;BME280;61787;42.022;23.078;2023-02-04T00:41:30;96787.94;;;1.51;83.94
20015;BME280;61787;42.022;23.078;2023-02-04T00:42:31;96788.69;;;1.57;83.43
20015;BME280;61787;42.022;23.078;2023-02-04T00:43:33;96792.63;;;1.59;83.15
20015;BME280;61787;42.022;23.078;2023-02-04T00:44:35;96788.63;;;1.67;82.32
20015;BME280;61787;42.022;23.078;2023-02-04T00:45:37;96796.50;;;1.72;82.62
20015;BME280;61787;42.022;23.078;2023-02-04T00:46:40;96791.16;;;1.77;82.44
20015;BME280;61787;42.022;23.078;2023-02-04T00:47:41;96786.88;;;1.86;82.87
20015;BME280;61787;42.022;23.078;2023-02-04T00:48:43;96791.53;;;1.99;82.21
20015;BME280;61787;42.022;23.078;2023-02-04T00:49:44;96782.47;;;2.05;82.31
20015;BME280;61787;42.022;23.078;2023-02-04T00:50:46;96778.31;;;1.99;82.01
20015;BME280;61787;42.022;23.078;2023-02-04T00:51:48;96780.94;;;1.99;82.35
20015;BME280;61787;42.022;23.078;2023-02-04T00:52:49;96775.09;;;2.02;81.69
20015;BME280;61787;42.022;23.078;2023-02-04T00:53:51;96772.50;;;1.97;82.43
20015;BME280;61787;42.022;23.078;2023-02-04T00:54:53;96776.69;;;2.03;82.37
20015;BME280;61787;42.022;23.078;2023-02-04T00:55:54;96778.69;;;2.11;82.50
20015;BME280;61787;42.022;23.078;2023-02-04T00:56:56;96775.00;;;2.12;82.53
20015;BME280;61787;42.022;23.078;2023-02-04T00:57:57;96771.50;;;2.17;82.00
20015;BME280;61787;42.022;23.078;2023-02-04T00:58:59;96770.19;;;2.20;81.70
20015;BME280;61787;42.022;23.078;2023-02-04T01:00:01;96774.44;;;2.15;80.73
20015;BME280;61787;42.022;23.078;2023-02-04T01:01:02;96767.13;;;2.07;81.94
20015;BME280;61787;42.022;23.078;2023-02-04T01:02:04;96769.91;;;1.92;81.27
20015;BME280;61787;42.022;23.078;2023-02-04T01:03:06;96768.13;;;1.83;81.70
20015;BME280;61787;42.022;23.078;2023-02-04T01:04:08;96769.50;;;1.75;81.56
20015;BME280;61787;42.022;23.078;2023-02-04T01:05:09;96768.72;;;1.75;82.30
20015;BME280;61787;42.022;23.078;2023-02-04T01:06:11;96771.09;;;1.76;82.16
20015;BME280;61787;42.022;23.078;2023-02-04T01:07:12;96767.94;;;1.74;82.03
20015;BME280;61787;42.022;23.078;2023-02-04T01:08:14;96772.19;;;1.70;82.47
20015;BME280;61787;42.022;23.078;2023-02-04T01:09:16;96765.34;;;1.69;83.09
20015;BME280;61787;42.022;23.078;2023-02-04T01:10:17;96758.94;;;1.75;84.11
20015;BME280;61787;42.022;23.078;2023-02-04T01:11:19;96759.50;;;1.72;84.99
20015;BME280;61787;42.022;23.078;2023-02-04T01:12:21;96760.88;;;1.64;85.50
20015;BME280;61787;42.022;23.078;2023-02-04T01:13:23;96755.09;;;1.62;85.04
20015;BME280;61787;42.022;23.078;2023-02-04T01:14:25;96759.59;;;1.62;85.39
20015;BME280;61787;42.022;23.078;2023-02-04T01:15:26;96755.88;;;1.63;85.19
20015;BME280;61787;42.022;23.078;2023-02-04T01:16:28;96755.88;;;1.63;85.17
20015;BME280;61787;42.022;23.078;2023-02-04T01:17:29;96744.81;;;1.56;86.30
20015;BME280;61787;42.022;23.078;2023-02-04T01:18:31;96742.22;;;1.51;86.91
20015;BME280;61787;42.022;23.078;2023-02-04T01:19:33;96749.66;;;1.49;87.18
20015;BME280;61787;42.022;23.078;2023-02-04T01:20:34;96745.94;;;1.50;88.01
20015;BME280;61787;42.022;23.078;2023-02-04T01:21:36;96740.66;;;1.50;88.55
20015;BME280;61787;42.022;23.078;2023-02-04T01:22:41;96740.09;;;1.53;89.08
20015;BME280;61787;42.022;23.078;2023-02-04T01:23:42;96747.78;;;1.49;89.38
20015;BME280;61787;42.022;23.078;2023-02-04T01:24:44;96734.91;;;1.43;90.22
20015;BME280;61787;42.022;23.078;2023-02-04T01:25:45;96743.81;;;1.52;90.52
20015;BME280;61787;42.022;23.078;2023-02-04T01:26:47;96743.19;;;1.60;90.33
20015;BME280;61787;42.022;23.078;2023-02-04T01:27:49;96739.00;;;1.59;90.86
20015;BME280;61787;42.022;23.078;2023-02-04T01:28:50;96737.97;;;1.55;91.12
20015;BME280;61787;42.022;23.078;2023-02-04T01:29:52;96739.13;;;1.39;91.93
20015;BME280;61787;42.022;23.078;2023-02-04T01:30:53;96739.69;;;1.36;92.22
20015;BME280;61787;42.022;23.078;2023-02-04T01:31:55;96741.78;;;1.39;92.70
20015;BME280;61787;42.022;23.078;2023-02-04T01:32:57;96741.81;;;1.34;92.85
20015;BME280;61787;42.022;23.078;2023-02-04T01:33:59;96734.50;;;1.25;93.80
20015;BME280;61787;42.022;23.078;2023-02-04T01:35:02;96735.06;;;1.22;94.22
20015;BME280;61787;42.022;23.078;2023-02-04T01:36:03;96732.88;;;1.29;94.53
20015;BME280;61787;42.022;23.078;2023-02-04T01:37:05;96727.56;;;1.35;94.66
20015;BME280;61787;42.022;23.078;2023-02-04T01:38:07;96733.88;;;1.34;94.76
20015;BME280;61787;42.022;23.078;2023-02-04T01:39:08;96729.94;;;1.36;94.88
20015;BME280;61787;42.022;23.078;2023-02-04T01:40:10;96727.03;;;1.38;95.21
20015;BME280;61787;42.022;23.078;2023-02-04T01:41:13;96724.34;;;1.43;95.15
20015;BME280;61787;42.022;23.078;2023-02-04T01:42:15;96720.00;;;1.57;95.07
20015;BME280;61787;42.022;23.078;2023-02-04T01:43:16;96724.63;;;1.70;94.60
20015;BME280;61787;42.022;23.078;2023-02-04T01:44:18;96726.69;;;1.78;94.11
20015;BME280;61787;42.022;23.078;2023-02-04T01:45:20;96722.56;;;1.91;93.48
20015;BME280;61787;42.022;23.078;2023-02-04T01:46:22;96721.19;;;1.98;93.39
20015;BME280;61787;42.022;23.078;2023-02-04T01:47:23;96732.16;;;2.10;92.80
20015;BME280;61787;42.022;23.078;2023-02-04T01:48:25;96722.03;;;2.18;92.08
20015;BME280;61787;42.022;23.078;2023-02-04T01:49:27;96724.59;;;2.28;91.70
20015;BME280;61787;42.022;23.078;2023-02-04T01:50:29;96718.16;;;2.34;91.54
20015;BME280;61787;42.022;23.078;2023-02-04T01:51:32;96724.97;;;2.40;91.55
20015;BME280;61787;42.022;23.078;2023-02-04T01:52:36;96718.84;;;2.44;91.58
20015;BME280;61787;42.022;23.078;2023-02-04T01:53:39;96717.41;;;2.52;91.48
20015;BME280;61787;42.022;23.078;2023-02-04T01:54:41;96711.50;;;2.60;90.59
20015;BME280;61787;42.022;23.078;2023-02-04T01:55:42;96715.66;;;2.66;90.83
20015;BME280;61787;42.022;23.078;2023-02-04T01:56:45;96709.22;;;2.72;89.89
20015;BME280;61787;42.022;23.078;2023-02-04T01:57:49;96710.25;;;2.76;89.74
20015;BME280;61787;42.022;23.078;2023-02-04T01:58:54;96707.28;;;2.78;88.89
20015;BME280;61787;42.022;23.078;2023-02-04T01:59:56;96708.09;;;2.78;88.35
20015;BME280;61787;42.022;23.078;2023-02-04T02:00:58;96694.78;;;2.83;87.97
20015;BME280;61787;42.022;23.078;2023-02-04T02:02:00;96696.94;;;2.81;87.09
20015;BME280;61787;42.022;23.078;2023-02-04T02:03:01;96689.84;;;2.77;87.16
20015;BME280;61787;42.022;23.078;2023-02-04T02:04:04;96698.50;;;2.82;85.99
20015;BME280;61787;42.022;23.078;2023-02-04T02:05:14;96685.56;;;2.81;85.41
20015;BME280;61787;42.022;23.078;2023-02-04T02:06:17;96690.63;;;2.77;85.80
20015;BME280;61787;42.022;23.078;2023-02-04T02:07:18;96694.13;;;2.73;85.65
20015;BME280;61787;42.022;23.078;2023-02-04T02:08:20;96679.03;;;2.73;85.28
20015;BME280;61787;42.022;23.078;2023-02-04T02:09:22;96679.63;;;2.70;85.44
20015;BME280;61787;42.022;23.078;2023-02-04T02:10:24;96679.16;;;2.63;85.28
20015;BME280;61787;42.022;23.078;2023-02-04T02:11:26;96682.59;;;2.64;86.30
20015;BME280;61787;42.022;23.078;2023-02-04T02:12:28;96673.31;;;2.66;85.81
20015;BME280;61787;42.022;23.078;2023-02-04T02:13:29;96683.53;;;2.54;86.69
20015;BME280;61787;42.022;23.078;2023-02-04T02:14:31;96678.88;;;2.46;86.73
20015;BME280;61787;42.022;23.078;2023-02-04T02:15:33;96676.41;;;2.31;87.96
20015;BME280;61787;42.022;23.078;2023-02-04T02:16:35;96677.19;;;2.31;88.36
20015;BME280;61787;42.022;23.078;2023-02-04T02:17:37;96679.63;;;2.28;88.48
20015;BME280;61787;42.022;23.078;2023-02-04T02:18:39;96682.38;;;2.18;88.62
20015;BME280;61787;42.022;23.078;2023-02-04T02:19:42;96683.50;;;2.11;89.25
20015;BME280;61787;42.022;23.078;2023-02-04T02:20:43;96671.91;;;2.07;89.77
20015;BME280;61787;42.022;23.078;2023-02-04T02:24:47;96655.25;;;2.07;89.79
20015;BME280;61787;42.022;23.078;2023-02-04T02:25:49;96657.63;;;2.08;90.16
20015;BME280;61787;42.022;23.078;2023-02-04T02:26:52;96659.03;;;2.01;89.97
20015;BME280;61787;42.022;23.078;2023-02-04T02:27:54;96658.69;;;2.07;91.33
20015;BME280;61787;42.022;23.078;2023-02-04T02:28:57;96654.94;;;2.13;90.53
20015;BME280;61787;42.022;23.078;2023-02-04T02:29:58;96647.41;;;2.21;90.78
20015;BME280;61787;42.022;23.078;2023-02-04T02:31:00;96646.59;;;2.25;90.32
20015;BME280;61787;42.022;23.078;2023-02-04T02:32:02;96643.59;;;2.32;90.20
20015;BME280;61787;42.022;23.078;2023-02-04T02:33:04;96657.25;;;2.39;90.35
20015;BME280;61787;42.022;23.078;2023-02-04T02:34:06;96655.06;;;2.46;89.59
20015;BME280;61787;42.022;23.078;2023-02-04T02:35:08;96661.28;;;2.55;88.96
20015;BME280;61787;42.022;23.078;2023-02-04T02:36:09;96662.28;;;2.59;88.68
20015;BME280;61787;42.022;23.078;2023-02-04T02:37:12;96663.28;;;2.63;88.46
20015;BME280;61787;42.022;23.078;2023-02-04T02:38:15;96664.88;;;2.64;88.45
20015;BME280;61787;42.022;23.078;2023-02-04T02:39:17;96653.28;;;2.60;88.32
20015;BME280;61787;42.022;23.078;2023-02-04T02:40:19;96656.41;;;2.62;88.82
20015;BME280;61787;42.022;23.078;2023-02-04T02:41:21;96654.00;;;2.66;88.60
20015;BME280;61787;42.022;23.078;2023-02-04T02:42:22;96656.84;;;2.69;89.05
20015;BME280;61787;42.022;23.078;2023-02-04T02:43:26;96661.50;;;2.77;88.60
20015;BME280;61787;42.022;23.078;2023-02-04T02:44:29;96650.06;;;2.82;88.17
20015;BME280;61787;42.022;23.078;2023-02-04T02:45:32;96653.13;;;2.89;87.61
20015;BME280;61787;42.022;23.078;2023-02-04T02:46:35;96647.75;;;2.94;87.98
20015;BME280;61787;42.022;23.078;2023-02-04T02:47:36;96649.06;;;2.96;87.58
20015;BME280;61787;42.022;23.078;2023-02-04T02:48:38;96651.13;;;2.99;86.41
20015;BME280;61787;42.022;23.078;2023-02-04T02:49:40;96657.41;;;3.04;86.63
20015;BME280;61787;42.022;23.078;2023-02-04T02:50:43;96648.91;;;3.07;86.59
20015;BME280;61787;42.022;23.078;2023-02-04T02:51:46;96640.03;;;2.97;86.98
20015;BME280;61787;42.022;23.078;2023-02-04T02:52:48;96633.69;;;2.61;87.94
20015;BME280;61787;42.022;23.078;2023-02-04T02:53:50;96624.41;;;2.21;90.08
20015;BME280;61787;42.022;23.078;2023-02-04T02:54:51;96620.28;;;1.91;92.15
20015;BME280;61787;42.022;23.078;2023-02-04T02:55:54;96621.38;;;1.85;93.60
20015;BME280;61787;42.022;23.078;2023-02-04T02:56:56;96625.41;;;1.83;94.15
20015;BME280;61787;42.022;23.078;2023-02-04T02:57:59;96627.25;;;1.82;93.82
20015;BME280;61787;42.022;23.078;2023-02-04T02:59:14;96625.13;;;1.84;94.64
20015;BME280;61787;42.022;23.078;2023-02-04T03:00:22;96611.00;;;1.94;93.95
20015;BME280;61787;42.022;23.078;2023-02-04T03:01:24;96609.94;;;1.95;94.49
20015;BME280;61787;42.022;23.078;2023-02-04T03:02:27;96611.97;;;1.79;95.09
20015;BME280;61787;42.022;23.078;2023-02-04T03:03:31;96605.22;;;1.68;95.29
20015;BME280;61787;42.022;23.078;2023-02-04T03:04:38;96605.75;;;1.65;95.59
20015;BME280;61787;42.022;23.078;2023-02-04T03:05:42;96610.97;;;1.70;96.51
20015;BME280;61787;42.022;23.078;2023-02-04T03:06:45;96611.28;;;1.68;96.03
20015;BME280;61787;42.022;23.078;2023-02-04T03:07:47;96609.69;;;1.67;96.27
20015;BME280;61787;42.022;23.078;2023-02-04T03:08:50;96600.41;;;1.70;95.87
20015;BME280;61787;42.022;23.078;2023-02-04T03:09:55;96603.06;;;1.70;96.27
20015;BME280;61787;42.022;23.078;2023-02-04T03:10:57;96591.16;;;1.73;96.43
20015;BME280;61787;42.022;23.078;2023-02-04T03:11:58;96597.22;;;1.73;96.34
20015;BME280;61787;42.022;23.078;2023-02-04T03:13:00;96600.34;;;1.75;96.13
20015;BME280;61787;42.022;23.078;2023-02-04T03:14:03;96594.75;;;1.82;96.39
20015;BME280;61787;42.022;23.078;2023-02-04T03:15:05;96593.88;;;1.86;95.73
20015;BME280;61787;42.022;23.078;2023-02-04T03:16:07;96601.34;;;1.84;95.44
20015;BME280;61787;42.022;23.078;2023-02-04T03:17:10;96591.81;;;1.83;95.65
20015;BME280;61787;42.022;23.078;2023-02-04T03:18:13;96587.03;;;1.85;95.59
20015;BME280;61787;42.022;23.078;2023-02-04T03:19:16;96587.66;;;1.77;95.87
20015;BME280;61787;42.022;23.078;2023-02-04T03:20:18;96590.56;;;1.76;96.22
20015;BME280;61787;42.022;23.078;2023-02-04T03:21:19;96586.41;;;1.69;96.63
20015;BME280;61787;42.022;23.078;2023-02-04T03:22:21;96571.91;;;1.67;96.96
20015;BME280;61787;42.022;23.078;2023-02-04T03:23:23;96576.19;;;1.63;97.46
20015;BME280;61787;42.022;23.078;2023-02-04T03:24:25;96569.91;;;1.59;97.64
20015;BME280;61787;42.022;23.078;2023-02-04T03:25:27;96565.91;;;1.61;97.57
20015;BME280;61787;42.022;23.078;2023-02-04T03:26:29;96563.84;;;1.58;98.07
20015;BME280;61787;42.022;23.078;2023-02-04T03:27:31;96576.31;;;1.53;98.32
20015;BME280;61787;42.022;23.078;2023-02-04T03:28:33;96569.44;;;1.52;98.64
20015;BME280;61787;42.022;23.078;2023-02-04T03:29:41;96565.50;;;1.49;98.87
20015;BME280;61787;42.022;23.078;2023-02-04T03:30:43;96568.44;;;1.48;98.96
20015;BME280;61787;42.022;23.078;2023-02-04T03:31:45;96566.63;;;1.43;98.90
20015;BME280;61787;42.022;23.078;2023-02-04T03:32:47;96564.81;;;1.39;99.17
20015;BME280;61787;42.022;23.078;2023-02-04T03:33:48;96563.59;;;1.31;99.46
20015;BME280;61787;42.022;23.078;2023-02-04T03:34:50;96562.00;;;1.30;99.85
20015;BME280;61787;42.022;23.078;2023-02-04T03:35:51;96557.72;;;1.34;100.00
20015;BME280;61787;42.022;23.078;2023-02-04T03:36:53;96561.09;;;1.40;100.00
20015;BME280;61787;42.022;23.078;2023-02-04T03:37:55;96567.41;;;1.44;100.00
20015;BME280;61787;42.022;23.078;2023-02-04T03:38:56;96564.94;;;1.52;100.00
20015;BME280;61787;42.022;23.078;2023-02-04T03:39:58;96566.53;;;1.53;99.35
20015;BME280;61787;42.022;23.078;2023-02-04T03:41:00;96571.25;;;1.56;98.72
20015;BME280;61787;42.022;23.078;2023-02-04T03:42:02;96566.97;;;1.60;99.19
20015;BME280;61787;42.022;23.078;2023-02-04T03:43:03;96568.94;;;1.74;98.50
20015;BME280;61787;42.022;23.078;2023-02-04T03:44:05;96563.28;;;1.80;98.11
20015;BME280;61787;42.022;23.078;2023-02-04T03:45:07;96567.19;;;1.88;98.24
20015;BME280;61787;42.022;23.078;2023-02-04T03:46:09;96563.19;;;1.90;97.77
20015;BME280;61787;42.022;23.078;2023-02-04T03:47:10;96562.09;;;1.91;97.50
20015;BME280;61787;42.022;23.078;2023-02-04T03:48:12;96565.25;;;1.93;97.51
20015;BME280;61787;42.022;23.078;2023-02-04T03:49:14;96566.34;;;1.92;97.10
20015;BME280;61787;42.022;23.078;2023-02-04T03:50:15;96565.25;;;1.93;97.13
20015;BME280;61787;42.022;23.078;2023-02-04T03:51:17;96563.56;;;2.02;97.33
20015;BME280;61787;42.022;23.078;2023-02-04T03:52:18;96559.78;;;2.08;97.14
20015;BME280;61787;42.022;23.078;2023-02-04T03:53:20;96554.56;;;2.03;96.73
20015;BME280;61787;42.022;23.078;2023-02-04T03:54:23;96555.56;;;2.07;96.96
20015;BME280;61787;42.022;23.078;2023-02-04T03:55:24;96551.00;;;1.94;97.06
20015;BME280;61787;42.022;23.078;2023-02-04T03:56:26;96547.81;;;1.92;97.79
20015;BME280;61787;42.022;23.078;2023-02-04T03:57:28;96548.81;;;1.96;97.76
20015;BME280;61787;42.022;23.078;2023-02-04T03:58:29;96542.88;;;1.86;97.46
20015;BME280;61787;42.022;23.078;2023-02-04T03:59:31;96542.94;;;1.81;97.64
20015;BME280;61787;42.022;23.078;2023-02-04T04:00:33;96550.59;;;1.82;98.37
20015;BME280;61787;42.022;23.078;2023-02-04T04:01:34;96552.78;;;1.75;98.50
20015;BME280;61787;42.022;23.078;2023-02-04T04:02:36;96550.00;;;1.66;98.50
20015;BME280;61787;42.022;23.078;2023-02-04T04:03:38;96552.34;;;1.68;99.30
20015;BME280;61787;42.022;23.078;2023-02-04T04:04:39;96552.25;;;1.78;99.36
20015;BME280;61787;42.022;23.078;2023-02-04T04:05:41;96544.38;;;1.73;99.23
20015;BME280;61787;42.022;23.078;2023-02-04T04:06:42;96544.59;;;1.77;99.29
20015;BME280;61787;42.022;23.078;2023-02-04T04:07:44;96550.31;;;1.84;99.38
20015;BME280;61787;42.022;23.078;2023-02-04T04:08:46;96547.38;;;1.85;99.03
20015;BME280;61787;42.022;23.078;2023-02-04T04:09:47;96544.72;;;1.85;99.11
20015;BME280;61787;42.022;23.078;2023-02-04T04:10:49;96541.59;;;1.83;98.92
20015;BME280;61787;42.022;23.078;2023-02-04T04:11:50;96538.16;;;1.83;98.92
20015;BME280;61787;42.022;23.078;2023-02-04T04:12:52;96537.91;;;1.84;98.61
20015;BME280;61787;42.022;23.078;2023-02-04T04:13:54;96542.25;;;1.94;98.59
20015;BME280;61787;42.022;23.078;2023-02-04T04:14:55;96530.25;;;2.01;98.94
20015;BME280;61787;42.022;23.078;2023-02-04T04:15:57;96529.63;;;2.09;98.82
20015;BME280;61787;42.022;23.078;2023-02-04T04:16:59;96521.69;;;2.09;98.39
20015;BME280;61787;42.022;23.078;2023-02-04T04:18:00;96528.34;;;2.07;97.49
20015;BME280;61787;42.022;23.078;2023-02-04T04:19:04;96519.84;;;2.10;97.51
20015;BME280;61787;42.022;23.078;2023-02-04T04:20:06;96522.19;;;2.11;96.84
20015;BME280;61787;42.022;23.078;2023-02-04T04:21:08;96526.41;;;2.12;96.70
20015;BME280;61787;42.022;23.078;2023-02-04T04:22:10;96517.56;;;2.03;96.74
20015;BME280;61787;42.022;23.078;2023-02-04T04:23:12;96524.47;;;1.99;96.80
20015;BME280;61787;42.022;23.078;2023-02-04T04:24:16;96514.53;;;1.91;96.90
20015;BME280;61787;42.022;23.078;2023-02-04T04:25:18;96518.31;;;1.85;97.16
20015;BME280;61787;42.022;23.078;2023-02-04T04:26:20;96526.47;;;1.89;97.16
20015;BME280;61787;42.022;23.078;2023-02-04T04:27:21;96524.47;;;1.99;97.07
20015;BME280;61787;42.022;23.078;2023-02-04T04:28:23;96529.13;;;2.07;97.04
20015;BME280;61787;42.022;23.078;2023-02-04T04:29:25;96529.56;;;2.14;96.19
20015;BME280;61787;42.022;23.078;2023-02-04T04:30:26;96523.25;;;2.10;96.43
20015;BME280;61787;42.022;23.078;2023-02-04T04:31:28;96513.25;;;2.07;96.35
20015;BME280;61787;42.022;23.078;2023-02-04T04:32:30;96520.13;;;2.08;96.49
20015;BME280;61787;42.022;23.078;2023-02-04T04:33:31;96522.63;;;2.00;96.41
20015;BME280;61787;42.022;23.078;2023-02-04T04:34:33;96518.22;;;1.90;96.99
20015;BME280;61787;42.022;23.078;2023-02-04T04:35:34;96516.97;;;1.88;97.80
20015;BME280;61787;42.022;23.078;2023-02-04T04:36:36;96514.59;;;1.86;97.83
20015;BME280;61787;42.022;23.078;2023-02-04T04:37:38;96510.16;;;1.82;98.16
20015;BME280;61787;42.022;23.078;2023-02-04T04:38:39;96512.00;;;1.81;98.61
20015;BME280;61787;42.022;23.078;2023-02-04T04:39:41;96509.56;;;1.85;98.65
20015;BME280;61787;42.022;23.078;2023-02-04T04:40:43;96513.38;;;1.79;99.06
20015;BME280;61787;42.022;23.078;2023-02-04T04:41:44;96507.91;;;1.70;99.30
20015;BME280;61787;42.022;23.078;2023-02-04T04:42:46;96505.91;;;1.62;99.68
20015;BME280;61787;42.022;23.078;2023-02-04T04:43:47;96510.19;;;1.58;100.00
20015;BME280;61787;42.022;23.078;2023-02-04T04:44:49;96503.84;;;1.59;100.00
20015;BME280;61787;42.022;23.078;2023-02-04T04:45:51;96489.78;;;1.63;100.00
20015;BME280;61787;42.022;23.078;2023-02-04T04:46:52;96494.78;;;1.65;100.00
20015;BME280;61787;42.022;23.078;2023-02-04T04:47:54;96487.09;;;1.68;100.00
20015;BME280;61787;42.022;23.078;2023-02-04T04:48:56;96484.66;;;1.72;100.00
20015;BME280;61787;42.022;23.078;2023-02-04T04:49:57;96489.34;;;1.75;100.00
20015;BME280;61787;42.022;23.078;2023-02-04T04:50:59;96491.50;;;1.73;100.00
20015;BME280;61787;42.022;23.078;2023-02-04T04:52:00;96490.94;;;1.76;100.00
20015;BME280;61787;42.022;23.078;2023-02-04T04:53:02;96497.78;;;1.77;100.00
20015;BME280;61787;42.022;23.078;2023-02-04T04:54:04;96498.25;;;1.84;100.00
20015;BME280;61787;42.022;23.078;2023-02-04T04:55:06;96492.91;;;1.89;100.00
20015;BME280;61787;42.022;23.078;2023-02-04T04:56:08;96491.59;;;1.87;100.00
20015;BME280;61787;42.022;23.078;2023-02-04T04:57:10;96490.81;;;1.86;100.00
20015;BME280;61787;42.022;23.078;2023-02-04T04:58:12;96497.09;;;1.90;100.00
20015;BME280;61787;42.022;23.078;2023-02-04T04:59:13;96498.13;;;1.94;100.00
20015;BME280;61787;42.022;23.078;2023-02-04T05:00:17;96509.34;;;2.05;100.00
20015;BME280;61787;42.022;23.078;2023-02-04T05:01:19;96507.31;;;2.15;100.00
20015;BME280;61787;42.022;23.078;2023-02-04T05:02:23;96506.09;;;2.27;99.26
20015;BME280;61787;42.022;23.078;2023-02-04T05:03:24;96502.03;;;2.34;98.43
20015;BME280;61787;42.022;23.078;2023-02-04T05:04:26;96499.50;;;2.43;98.12
20015;BME280;61787;42.022;23.078;2023-02-04T05:05:28;96497.28;;;2.50;97.66
20015;BME280;61787;42.022;23.078;2023-02-04T05:06:29;96495.06;;;2.57;97.67
20015;BME280;61787;42.022;23.078;2023-02-04T05:07:31;96500.78;;;2.64;97.28
20015;BME280;61787;42.022;23.078;2023-02-04T05:08:32;96499.63;;;2.70;95.83
20015;BME280;61787;42.022;23.078;2023-02-04T05:09:36;96502.97;;;2.76;95.53
20015;BME280;61787;42.022;23.078;2023-02-04T05:10:39;96507.41;;;2.80;94.99
20015;BME280;61787;42.022;23.078;2023-02-04T05:11:41;96508.09;;;2.86;94.41
20015;BME280;61787;42.022;23.078;2023-02-04T05:12:42;96503.78;;;2.90;94.32
20015;BME280;61787;42.022;23.078;2023-02-04T05:13:44;96500.25;;;2.94;94.19
20015;BME280;61787;42.022;23.078;2023-02-04T05:14:45;96502.81;;;2.99;93.00
20015;BME280;61787;42.022;23.078;2023-02-04T05:15:47;96503.81;;;3.04;92.57
20015;BME280;61787;42.022;23.078;2023-02-04T05:16:48;96501.16;;;3.04;92.30
20015;BME280;61787;42.022;23.078;2023-02-04T05:17:50;96499.09;;;3.00;91.70
20015;BME280;61787;42.022;23.078;2023-02-04T05:18:52;96502.81;;;2.99;91.03
20015;BME280;61787;42.022;23.078;2023-02-04T05:19:54;96502.25;;;3.03;90.95
20015;BME280;61787;42.022;23.078;2023-02-04T05:20:55;96503.06;;;3.17;89.09
20015;BME280;61787;42.022;23.078;2023-02-04T05:21:57;96510.13;;;3.21;89.07
20015;BME280;61787;42.022;23.078;2023-02-04T05:23:02;96505.63;;;3.22;89.21
20015;BME280;61787;42.022;23.078;2023-02-04T05:24:06;96508.22;;;3.08;89.48
20015;BME280;61787;42.022;23.078;2023-02-04T05:25:07;96503.09;;;2.98;89.78
20015;BME280;61787;42.022;23.078;2023-02-04T05:26:09;96512.44;;;2.95;89.72
20015;BME280;61787;42.022;23.078;2023-02-04T05:27:15;96505.66;;;2.89;90.48
20015;BME280;61787;42.022;23.078;2023-02-04T05:28:17;96506.72;;;2.88;91.01
20015;BME280;61787;42.022;23.078;2023-02-04T05:29:18;96507.22;;;2.90;91.50
20015;BME280;61787;42.022;23.078;2023-02-04T05:30:20;96505.13;;;2.87;91.49
20015;BME280;61787;42.022;23.078;2023-02-04T05:31:21;96511.63;;;2.81;91.52